Time;durP1;ratioP1;P1;durP2;ratioP2;P2;SDS_P1;SDS_P2;PMS_P1;PMS_P2;Temp;Humidity;BMP_temperature;BMP_pressure;BME280_temperature;BME280_humidity;BME280_pressure;Samples;Min_cycle;Max_cycle;Signal;HPM_P1;HPM_P2
2021/07/31 00:01:40;;;;;;;;;;;;;;;;;;;;;
2021/07/31 00:04:19;;;;;;;;;;;;;;;16.37;100.00;98818.16;1497389;93;20181;-79
2021/07/31 00:06:59;;;;;;;;;;;;;;;16.28;100.00;98831.06;1499035;93;20923;-78
2021/07/31 00:09:32;;;;;;;;;;;;;;;16.24;100.00;98827.39;1496016;94;20196;-77
2021/07/31 00:12:07;;;;;;;;;;;;;;;16.26;100.00;98821.66;1502380;94;21971;-78
2021/07/31 00:14:37;;;;;;;;;;;;;;;16.29;100.00;98826.45;1507896;93;20181;-77
2021/07/31 00:17:18;;;;;;;;;;;;;;;16.29;100.00;98819.67;1539378;91;20108;-77
2021/07/31 00:19:41;;;;;;;;;;;;;;;16.26;100.00;98823.80;1554845;90;20179;-76
2021/07/31 00:22:09;;;;;;;;;;;;;;;16.24;100.00;98826.05;1580664;91;20126;-77
2021/07/31 00:24:36;;;;;;;;;;;;;;;16.22;100.00;98815.28;1580212;91;21767;-76
2021/07/31 00:27:19;;;;;;;;;;;;;;;16.18;100.00;98819.70;1579784;91;20098;-78
2021/07/31 00:29:51;;;;;;;;;;;;;;;16.16;100.00;98820.56;1576167;88;20238;-79
2021/07/31 00:32:20;;;;;;;;;;;;;;;16.14;100.00;98818.15;1605919;88;20193;-79
2021/07/31 00:34:50;;;;;;;;;;;;;;;16.11;100.00;98822.04;1618329;86;20306;-80
2021/07/31 00:37:17;;;;;;;;;;;;;;;16.08;100.00;98811.27;1686475;84;21227;-77
2021/07/31 00:39:44;;;;;;;;;;;;;;;16.04;100.00;98815.69;1692567;84;20144;-76
2021/07/31 00:42:14;;;;;;;;;;;;;;;16.01;100.00;98805.48;1807506;79;20153;-78
2021/07/31 00:44:44;;;;;;;;;;;;;;;15.99;100.00;98809.84;1813843;79;20098;-77
2021/07/31 00:47:11;;;;;;;;;;;;;;;15.98;100.00;98810.17;1815380;79;20102;-78
2021/07/31 00:49:38;;;;;;;;;;;;;;;15.97;100.00;98808.55;1815634;79;21921;-76
2021/07/31 00:52:06;;;;;;;;;;;;;;;15.93;100.00;98802.97;1815327;79;20530;-76
2021/07/31 00:54:34;;;;;;;;;;;;;;;15.89;100.00;98797.91;1815867;79;20113;-78
2021/07/31 00:57:03;;;;;;;;;;;;;;;15.83;100.00;98797.80;1815378;79;20202;-77
2021/07/31 00:59:40;;;;;;;;;;;;;;;15.84;100.00;98798.04;1814185;79;20440;-78
2021/07/31 01:02:26;;;;;;;;;;;;;;;15.85;100.00;98796.95;1793828;78;21169;-79
2021/07/31 01:05:31;;;;;;;;;;;;;;;15.88;100.00;98789.56;1790132;78;20190;-79
2021/07/31 01:08:48;;;;;;;;;;;;;;;15.91;100.00;98798.41;1795716;78;20078;-78
2021/07/31 01:14:28;;;;;;;;;;;;;;;15.89;100.00;98795.77;1712586;83;20182;-78
2021/07/31 01:17:02;;;;;;;;;;;;;;;15.91;100.00;98788.94;1713549;83;20209;-80
2021/07/31 01:19:39;;;;;;;;;;;;;;;15.88;100.00;98789.56;1709083;83;20227;-77
2021/07/31 01:22:06;;;;;;;;;;;;;;;15.88;100.00;98792.27;1713931;83;20162;-79
2021/07/31 01:24:35;;;;;;;;;;;;;;;15.87;100.00;98792.01;1713925;83;20149;-78
2021/07/31 01:27:14;;;;;;;;;;;;;;;;;;;;;
2021/07/31 01:29:40;;;;;;;;;;;;;;;15.76;100.00;98786.05;1705355;83;20143;-80
2021/07/31 01:32:09;;;;;;;;;;;;;;;15.76;100.00;98790.66;1713503;83;20526;-79
2021/07/31 01:34:39;;;;;;;;;;;;;;;15.75;100.00;98787.69;1707216;83;20509;-77
2021/07/31 01:37:13;;;;;;;;;;;;;;;15.74;100.00;98787.46;1639652;86;20162;-79
2021/07/31 01:39:54;;;;;;;;;;;;;;;15.73;100.00;98792.64;1662522;86;20179;-78
2021/07/31 01:42:56;;;;;;;;;;;;;;;15.73;100.00;98800.75;1644290;87;20105;-80
2021/07/31 01:46:00;;;;;;;;;;;;;;;;;;;;;
2021/07/31 01:51:45;;;;;;;;;;;;;;;15.67;100.00;98795.17;1636112;86;20156;-78
2021/07/31 01:54:12;;;;;;;;;;;;;;;15.64;100.00;98802.78;1618281;88;20108;-79
2021/07/31 01:56:40;;;;;;;;;;;;;;;15.63;100.00;98801.75;1618134;88;21937;-77
2021/07/31 01:59:09;;;;;;;;;;;;;;;15.63;100.00;98805.81;1597053;88;20142;-77
2021/07/31 02:01:36;;;;;;;;;;;;;;;15.60;100.00;98806.40;1618185;88;20136;-76
2021/07/31 02:04:05;;;;;;;;;;;;;;;15.56;100.00;98808.13;1618288;88;20092;-77
2021/07/31 02:06:51;;;;;;;;;;;;;;;15.56;100.00;98806.22;1618281;88;20477;-76
2021/07/31 02:09:20;;;;;;;;;;;;;;;15.55;100.00;98805.95;1617872;88;20112;-79
2021/07/31 02:11:48;;;;;;;;;;;;;;;15.54;100.00;98811.13;1618419;88;20163;-77
2021/07/31 02:14:17;;;;;;;;;;;;;;;15.52;100.00;98807.92;1621431;88;20157;-78
2021/07/31 02:16:48;;;;;;;;;;;;;;;15.49;100.00;98811.80;1609044;89;20156;-78
2021/07/31 02:19:16;;;;;;;;;;;;;;;15.46;100.00;98807.80;1609301;89;20108;-79
2021/07/31 02:21:52;;;;;;;;;;;;;;;15.44;100.00;98811.36;1601691;88;21126;-76
2021/07/31 02:24:39;;;;;;;;;;;;;;;15.41;100.00;98811.41;1570112;91;20942;-78
2021/07/31 02:27:25;;;;;;;;;;;;;;;15.38;100.00;98806.59;1594093;86;20108;-77
2021/07/31 02:29:54;;;;;;;;;;;;;;;15.36;100.00;98807.47;1657855;85;20192;-76
2021/07/31 02:32:22;;;;;;;;;;;;;;;15.34;100.00;98808.88;1658478;86;20454;-77
2021/07/31 02:34:55;;;;;;;;;;;;;;;15.36;100.00;98810.70;1644983;86;21071;-78
2021/07/31 02:37:23;;;;;;;;;;;;;;;15.36;100.00;98813.41;1658607;86;20116;-77
2021/07/31 02:39:57;;;;;;;;;;;;;;;15.37;100.00;98820.44;1657724;85;20104;-78
2021/07/31 02:42:27;;;;;;;;;;;;;;;15.37;100.00;98815.82;1635670;86;20108;-76
2021/07/31 02:44:54;;;;;;;;;;;;;;;15.39;100.00;98816.88;1678491;82;20166;-76
2021/07/31 02:47:23;;;;;;;;;;;;;;;15.40;100.00;98818.47;1743468;81;21753;-77
2021/07/31 02:49:51;;;;;;;;;;;;;;;15.40;100.00;98818.47;1719289;82;20103;-77
2021/07/31 02:52:17;;;;;;;;;;;;;;;15.39;100.00;98822.29;1743402;82;20095;-77
2021/07/31 02:54:47;;;;;;;;;;;;;;;15.41;100.00;98821.44;1749224;78;20119;-76
2021/07/31 02:57:14;;;;;;;;;;;;;;;15.42;100.00;98818.97;1790197;78;20420;-76
2021/07/31 02:59:42;;;;;;;;;;;;;;;15.44;100.00;98823.53;1789583;78;21122;-75
2021/07/31 03:02:09;;;;;;;;;;;;;;;15.47;100.00;98829.67;1823189;78;20141;-75
2021/07/31 03:04:38;;;;;;;;;;;;;;;15.54;100.00;98829.27;1792017;78;20101;-76
2021/07/31 03:07:31;;;;;;;;;;;;;;;15.60;100.00;98830.19;1823192;78;20077;-74
2021/07/31 03:09:58;;;;;;;;;;;;;;;15.67;100.00;98839.80;1823064;78;20081;-76
2021/07/31 03:12:28;;;;;;;;;;;;;;;15.74;100.00;98839.66;1822639;78;21110;-75
2021/07/31 03:14:56;;;;;;;;;;;;;;;15.80;100.00;98845.22;1765490;78;38917;-75
2021/07/31 03:17:26;;;;;;;;;;;;;;;15.85;100.00;98838.89;1822638;78;20420;-77
2021/07/31 03:19:53;;;;;;;;;;;;;;;15.92;100.00;98841.95;1822689;78;20086;-77
2021/07/31 03:22:28;;;;;;;;;;;;;;;15.97;100.00;98843.20;1693081;83;20182;-78
2021/07/31 03:27:30;;;;;;;;;;;;;;;16.17;100.00;98848.69;1674117;85;20152;-76
2021/07/31 03:30:08;;;;;;;;;;;;;;;16.24;100.00;98845.53;1677678;85;20457;-76
2021/07/31 03:32:36;;;;;;;;;;;;;;;16.31;100.00;98851.31;1678872;85;20113;-76
2021/07/31 03:35:03;;;;;;;;;;;;;;;16.39;100.00;98853.83;1679824;84;20446;-78
2021/07/31 03:37:36;;;;;;;;;;;;;;;16.46;100.00;98858.25;1684270;84;21109;-77
2021/07/31 03:40:37;;;;;;;;;;;;;;;16.53;100.00;98849.70;1675461;85;20116;-77
2021/07/31 03:43:10;;;;;;;;;;;;;;;16.62;100.00;98846.48;1646610;86;20150;-78
2021/07/31 03:45:51;;;;;;;;;;;;;;;16.74;100.00;98854.05;1663106;85;20099;-78
2021/07/31 03:48:22;;;;;;;;;;;;;;;16.84;100.00;98855.16;1680102;85;20084;-79
2021/07/31 03:51:16;;;;;;;;;;;;;;;16.97;100.00;98857.52;1677582;85;20095;-78
2021/07/31 03:53:44;;;;;;;;;;;;;;;17.07;100.00;98858.59;1684281;84;20124;-79
2021/07/31 03:56:12;;;;;;;;;;;;;;;17.16;100.00;98852.64;1686106;84;20191;-79
2021/07/31 03:58:45;;;;;;;;;;;;;;;17.29;100.00;98862.56;1685378;84;20491;-79
2021/07/31 04:01:24;;;;;;;;;;;;;;;17.40;100.00;98857.66;1689211;83;20180;-80
2021/07/31 04:04:13;;;;;;;;;;;;;;;;;;;;;
2021/07/31 04:06:46;;;;;;;;;;;;;;;17.66;100.00;98863.12;1636010;86;20101;-77
2021/07/31 04:09:32;;;;;;;;;;;;;;;17.83;100.00;98856.94;1695907;83;20106;-76
2021/07/31 04:12:17;;;;;;;;;;;;;;;17.92;100.00;98853.67;1684981;84;20704;-77
2021/07/31 04:15:14;;;;;;;;;;;;;;;18.07;100.00;98861.90;1685494;84;20505;-78
2021/07/31 04:17:37;;;;;;;;;;;;;;;18.18;100.00;98867.26;1658673;85;21398;-77
2021/07/31 04:20:30;;;;;;;;;;;;;;;18.26;100.00;98863.50;1615915;87;20092;-78
2021/07/31 04:29:12;;;;;;;;;;;;;;;18.68;100.00;98865.89;1503967;93;20180;-80
2021/07/31 04:31:46;;;;;;;;;;;;;;;18.83;100.00;98860.52;1530724;93;21611;-79
2021/07/31 04:36:58;;;;;;;;;;;;;;;19.30;100.00;98853.66;1456902;96;20233;-76
2021/07/31 04:39:39;;;;;;;;;;;;;;;;;;;;;
2021/07/31 04:42:10;;;;;;;;;;;;;;;19.50;100.00;98865.73;1474911;95;20246;-76
2021/07/31 04:44:38;;;;;;;;;;;;;;;19.68;100.00;98865.08;1455260;98;21213;-79
2021/07/31 04:47:05;;;;;;;;;;;;;;;19.93;100.00;98865.22;1459421;98;20224;-77
2021/07/31 04:49:36;;;;;;;;;;;;;;;20.19;100.00;98865.02;1457534;97;20175;-79
2021/07/31 04:52:09;;;;;;;;;;;;;;;20.39;100.00;98864.74;1460401;97;20288;-80
2021/07/31 04:55:05;;;;;;;;;;;;;;;20.45;100.00;98871.56;1461524;97;20311;-79
2021/07/31 04:57:33;;;;;;;;;;;;;;;20.58;100.00;98865.06;1472629;96;20889;-75
2021/07/31 05:00:04;;;;;;;;;;;;;;;20.80;100.00;98880.22;1474137;95;20117;-76
2021/07/31 05:02:32;;;;;;;;;;;;;;;20.92;100.00;98877.52;1487245;96;20452;-75
2021/07/31 05:05:14;;;;;;;;;;;;;;;21.05;100.00;98882.41;1487371;95;20220;-79
2021/07/31 05:07:43;;;;;;;;;;;;;;;21.37;100.00;98889.47;1542276;92;20206;-79
2021/07/31 05:10:10;;;;;;;;;;;;;;;21.64;100.00;98884.48;1543216;93;21116;-76
2021/07/31 05:12:37;;;;;;;;;;;;;;;21.75;100.00;98882.85;1541346;92;20159;-78
2021/07/31 05:15:08;;;;;;;;;;;;;;;22.02;100.00;98888.95;1591903;88;20207;-79
2021/07/31 05:17:39;;;;;;;;;;;;;;;22.19;100.00;98891.95;1614498;87;20247;-80
2021/07/31 05:20:06;;;;;;;;;;;;;;;22.34;100.00;98892.38;1636415;87;20491;-76
2021/07/31 05:22:33;;;;;;;;;;;;;;;22.45;100.00;98901.69;1636648;87;21895;-75
2021/07/31 05:25:03;;;;;;;;;;;;;;;22.50;100.00;98896.55;1648859;84;20148;-76
2021/07/31 05:27:38;;;;;;;;;;;;;;;22.54;100.00;98894.13;1713100;82;20220;-76
2021/07/31 05:30:09;;;;;;;;;;;;;;;22.68;100.00;98904.09;1712556;83;20073;-75
2021/07/31 05:33:13;;;;;;;;;;;;;;;22.89;100.00;98897.58;1715662;82;20253;-79
2021/07/31 05:35:55;;;;;;;;;;;;;;;23.04;100.00;98897.39;1713683;82;21803;-81
2021/07/31 05:38:24;;;;;;;;;;;;;;;23.40;100.00;98900.43;1718414;81;20164;-72
2021/07/31 05:40:50;;;;;;;;;;;;;;;23.62;100.00;98902.30;1766087;78;20158;-75
2021/07/31 05:43:17;;;;;;;;;;;;;;;23.88;100.00;98903.09;1821623;78;20131;-75
2021/07/31 05:45:44;;;;;;;;;;;;;;;24.01;100.00;98903.20;1821720;78;20212;-76
2021/07/31 05:48:16;;;;;;;;;;;;;;;24.08;100.00;98901.98;1812180;78;20185;-77
2021/07/31 05:50:42;;;;;;;;;;;;;;;24.17;100.00;98909.39;1819645;78;20755;-75
2021/07/31 05:53:11;;;;;;;;;;;;;;;24.43;100.00;98902.47;1821894;77;20236;-76
2021/07/31 05:55:44;;;;;;;;;;;;;;;24.53;97.62;98910.14;1827001;78;20121;-79
2021/07/31 05:58:11;;;;;;;;;;;;;;;24.79;97.38;98905.89;1830418;78;20148;-73
2021/07/31 06:00:37;;;;;;;;;;;;;;;24.93;97.53;98906.16;1831677;78;21123;-75
2021/07/31 06:03:04;;;;;;;;;;;;;;;25.11;95.33;98905.11;1831060;78;20105;-72
2021/07/31 06:05:30;;;;;;;;;;;;;;;25.21;93.81;98910.01;1831974;78;20424;-75
2021/07/31 06:07:59;;;;;;;;;;;;;;;25.27;91.86;98908.33;1831834;77;20802;-76
2021/07/31 06:10:27;;;;;;;;;;;;;;;25.42;88.76;98907.38;1831566;78;20085;-74
2021/07/31 06:12:54;;;;;;;;;;;;;;;25.57;85.68;98911.92;1831713;78;21756;-75
2021/07/31 06:15:21;;;;;;;;;;;;;;;25.83;84.60;98903.47;1831724;78;20093;-77
2021/07/31 06:17:47;;;;;;;;;;;;;;;26.00;81.35;98905.70;1858647;77;20158;-75
2021/07/31 06:20:16;;;;;;;;;;;;;;;25.98;82.49;98912.73;1857650;77;20154;-76
2021/07/31 06:22:43;;;;;;;;;;;;;;;26.19;81.78;98913.02;1860631;77;20110;-75
2021/07/31 06:25:10;;;;;;;;;;;;;;;26.83;77.52;98913.55;1858398;77;21113;-77
2021/07/31 06:27:36;;;;;;;;;;;;;;;27.03;75.13;98916.30;1858391;77;20111;-74
2021/07/31 06:30:06;;;;;;;;;;;;;;;27.09;73.47;98923.61;1858353;77;20130;-73
2021/07/31 06:32:37;;;;;;;;;;;;;;;27.24;72.42;98910.78;1866273;77;20086;-76
2021/07/31 06:35:06;;;;;;;;;;;;;;;27.47;71.64;98916.88;1868566;77;20484;-72
2021/07/31 06:37:35;;;;;;;;;;;;;;;27.57;68.94;98914.00;1861742;77;21748;-74
2021/07/31 06:40:01;;;;;;;;;;;;;;;27.56;66.64;98906.88;1858822;77;20119;-77
2021/07/31 06:42:28;;;;;;;;;;;;;;;27.54;65.76;98903.75;1859558;77;20111;-74
2021/07/31 06:44:56;;;;;;;;;;;;;;;27.32;66.04;98893.16;1859320;77;20139;-79
2021/07/31 06:47:23;;;;;;;;;;;;;;;27.58;64.20;98898.47;1859472;77;20083;-75
2021/07/31 06:49:51;;;;;;;;;;;;;;;27.66;65.54;98902.62;1859428;77;21553;-73
2021/07/31 06:52:18;;;;;;;;;;;;;;;27.60;63.96;98900.03;1829085;77;20083;-73
2021/07/31 06:54:46;;;;;;;;;;;;;;;27.60;64.28;98903.58;1859284;77;20138;-74
2021/07/31 06:57:13;;;;;;;;;;;;;;;27.52;63.30;98901.95;1857515;76;20174;-74
2021/07/31 06:59:39;;;;;;;;;;;;;;;27.61;61.88;98902.98;1859437;77;20146;-76
2021/07/31 07:02:07;;;;;;;;;;;;;;;27.90;62.79;98899.24;1858912;77;21073;-75
2021/07/31 07:04:38;;;;;;;;;;;;;;;27.90;61.22;98895.11;1858696;77;20162;-73
2021/07/31 07:07:11;;;;;;;;;;;;;;;28.12;60.38;98902.89;1858498;77;20166;-74
2021/07/31 07:09:38;;;;;;;;;;;;;;;27.94;62.08;98903.41;1827274;78;20146;-75
2021/07/31 07:12:17;;;;;;;;;;;;;;;28.41;59.72;98898.87;1857863;77;20112;-74
2021/07/31 07:14:45;;;;;;;;;;;;;;;28.53;61.97;98903.28;1862987;77;21528;-75
2021/07/31 07:17:13;;;;;;;;;;;;;;;28.57;59.76;98902.70;1862874;77;20504;-75
2021/07/31 07:19:44;;;;;;;;;;;;;;;28.80;61.34;98906.48;1863066;77;20173;-73
2021/07/31 07:22:13;;;;;;;;;;;;;;;29.01;58.81;98904.36;1814257;77;20090;-74
2021/07/31 07:24:40;;;;;;;;;;;;;;;28.66;57.60;98896.80;1828620;77;20170;-74
2021/07/31 07:27:07;;;;;;;;;;;;;;;28.81;57.73;98901.97;1827444;77;21201;-77
2021/07/31 07:29:34;;;;;;;;;;;;;;;28.98;56.95;98914.22;1823155;77;20150;-74
2021/07/31 07:32:01;;;;;;;;;;;;;;;28.90;57.74;98909.06;1838032;77;20174;-68
2021/07/31 07:34:27;;;;;;;;;;;;;;;29.12;57.18;98907.92;1837799;77;20400;-71
2021/07/31 07:36:53;;;;;;;;;;;;;;;29.00;57.38;98911.05;1839481;77;20477;-72
2021/07/31 07:39:21;;;;;;;;;;;;;;;29.53;56.73;98913.05;1835611;76;21128;-72
2021/07/31 07:41:49;;;;;;;;;;;;;;;29.44;54.97;98916.80;1837538;77;20156;-78
2021/07/31 07:44:16;;;;;;;;;;;;;;;29.26;56.81;98918.98;1831487;78;20105;-73
2021/07/31 07:46:45;;;;;;;;;;;;;;;29.52;56.54;98912.05;1834281;77;20474;-70
2021/07/31 07:49:11;;;;;;;;;;;;;;;29.39;56.31;98916.61;1825266;77;20175;-73
2021/07/31 07:51:39;;;;;;;;;;;;;;;29.47;57.55;98911.86;1846297;77;21129;-73
2021/07/31 07:54:06;;;;;;;;;;;;;;;29.84;55.38;98910.06;1833546;77;20429;-74
2021/07/31 07:56:32;;;;;;;;;;;;;;;30.00;55.77;98910.98;1839493;77;20149;-73
2021/07/31 07:59:00;;;;;;;;;;;;;;;30.27;54.97;98911.31;1846946;77;20613;-77
2021/07/31 08:01:29;;;;;;;;;;;;;;;30.32;54.51;98908.12;1819269;79;20082;-73
2021/07/31 08:03:57;;;;;;;;;;;;;;;30.39;52.31;98903.16;1819393;79;21132;-72
2021/07/31 08:06:24;;;;;;;;;;;;;;;30.27;53.51;98904.99;1819537;79;20098;-75
2021/07/31 08:08:50;;;;;;;;;;;;;;;30.37;53.71;98895.06;1819424;79;20221;-73
2021/07/31 08:11:17;;;;;;;;;;;;;;;30.48;52.47;98899.36;1828588;77;20083;-73
2021/07/31 08:13:47;;;;;;;;;;;;;;;30.57;53.06;98884.27;1838075;77;20164;-74
2021/07/31 08:16:16;;;;;;;;;;;;;;;30.56;50.09;98898.72;1822599;77;21123;-72
2021/07/31 08:18:42;;;;;;;;;;;;;;;30.26;45.69;98902.83;1819480;79;20431;-73
2021/07/31 08:21:11;;;;;;;;;;;;;;;30.45;47.66;98899.36;1819287;78;20145;-73
2021/07/31 08:23:37;;;;;;;;;;;;;;;30.60;47.27;98903.64;1842861;77;20327;-72
2021/07/31 08:26:05;;;;;;;;;;;;;;;30.61;47.12;98899.67;1837485;77;20193;-75
2021/07/31 08:28:32;;;;;;;;;;;;;;;30.64;45.16;98903.01;1844813;77;21130;-74
2021/07/31 08:30:59;;;;;;;;;;;;;;;30.91;44.32;98907.41;1834156;77;20307;-74
2021/07/31 08:33:27;;;;;;;;;;;;;;;31.13;46.04;98899.72;1846182;77;20139;-74
2021/07/31 08:35:58;;;;;;;;;;;;;;;31.30;42.18;98895.83;1852775;77;20114;-70
2021/07/31 08:38:25;;;;;;;;;;;;;;;31.29;43.37;98899.81;1821858;77;20140;-76
2021/07/31 08:40:53;;;;;;;;;;;;;;;31.36;42.25;98899.14;1827667;77;21912;-71
2021/07/31 08:43:20;;;;;;;;;;;;;;;31.27;42.07;98903.59;1825233;78;20153;-73
2021/07/31 08:45:47;;;;;;;;;;;;;;;31.24;41.39;98906.58;1819953;79;20121;-74
2021/07/31 08:48:13;;;;;;;;;;;;;;;31.60;40.71;98908.46;1787970;79;20094;-74
2021/07/31 08:50:40;;;;;;;;;;;;;;;31.32;39.76;98901.76;1819888;79;20461;-72
2021/07/31 08:53:07;;;;;;;;;;;;;;;31.22;39.95;98904.03;1820210;79;21017;-76
2021/07/31 08:55:35;;;;;;;;;;;;;;;31.18;40.24;98898.50;1819799;78;20181;-73
2021/07/31 08:58:03;;;;;;;;;;;;;;;31.07;41.20;98901.97;1815787;77;20554;-75
2021/07/31 09:00:32;;;;;;;;;;;;;;;31.11;42.84;98897.17;1814689;78;20134;-78
2021/07/31 09:02:59;;;;;;;;;;;;;;;31.42;42.65;98900.11;1815400;78;20571;-78
2021/07/31 09:05:32;;;;;;;;;;;;;;;31.59;40.43;98895.77;1785982;79;21102;-73
2021/07/31 09:08:01;;;;;;;;;;;;;;;30.77;41.94;98889.47;1815229;78;20513;-74
2021/07/31 09:10:33;;;;;;;;;;;;;;;30.95;42.08;98890.17;1815383;79;20460;-75
2021/07/31 09:13:02;;;;;;;;;;;;;;;31.31;42.43;98898.20;1815411;78;20156;-73
2021/07/31 09:15:30;;;;;;;;;;;;;;;31.21;40.80;98894.13;1815068;78;20444;-72
2021/07/31 09:18:34;;;;;;;;;;;;;;;31.40;40.95;98893.58;1830529;77;21117;-71
2021/07/31 09:21:02;;;;;;;;;;;;;;;31.67;39.85;98882.61;1787601;79;20171;-71
2021/07/31 09:23:44;;;;;;;;;;;;;;;31.88;40.55;98891.31;1767379;81;20221;-73
2021/07/31 09:26:22;;;;;;;;;;;;;;;31.65;39.50;98883.63;1764792;81;20133;-71
2021/07/31 09:29:02;;;;;;;;;;;;;;;32.16;40.34;98881.88;1769174;81;20139;-71
2021/07/31 09:31:30;;;;;;;;;;;;;;;32.54;37.75;98890.14;1767766;81;21560;-74
2021/07/31 09:33:59;;;;;;;;;;;;;;;32.14;39.72;98888.47;1768999;81;20086;-73
2021/07/31 09:36:40;;;;;;;;;;;;;;;31.97;40.53;98884.70;1768747;81;20102;-72
2021/07/31 09:39:09;;;;;;;;;;;;;;;31.83;39.16;98881.45;1808027;78;20483;-71
2021/07/31 09:41:39;;;;;;;;;;;;;;;31.57;39.56;98875.98;1789122;78;20158;-71
2021/07/31 09:44:16;;;;;;;;;;;;;;;31.33;41.49;98878.37;1820487;78;21503;-72
2021/07/31 09:46:47;;;;;;;;;;;;;;;31.19;40.51;98871.77;1815632;78;20114;-76
2021/07/31 09:49:21;;;;;;;;;;;;;;;31.53;39.81;98870.28;1813981;78;20506;-75
2021/07/31 09:51:58;;;;;;;;;;;;;;;31.73;39.36;98860.17;1766868;80;20170;-75
2021/07/31 09:54:26;;;;;;;;;;;;;;;31.55;39.63;98862.34;1767995;80;20109;-69
2021/07/31 09:56:56;;;;;;;;;;;;;;;31.83;40.63;98874.52;1798930;79;22194;-72
2021/07/31 09:59:25;;;;;;;;;;;;;;;31.87;38.47;98869.52;1791798;79;20120;-77
2021/07/31 10:02:03;;;;;;;;;;;;;;;31.57;39.05;98866.27;1797500;79;20496;-73
2021/07/31 10:04:33;;;;;;;;;;;;;;;31.75;39.45;98873.03;1795084;79;20620;-70
2021/07/31 10:07:04;;;;;;;;;;;;;;;31.73;39.14;98863.55;1818007;78;20069;-75
2021/07/31 10:09:33;;;;;;;;;;;;;;;31.92;39.32;98868.48;1821325;78;20825;-73
2021/07/31 10:12:00;;;;;;;;;;;;;;;32.14;38.52;98869.61;1798414;79;20509;-75
2021/07/31 10:14:26;;;;;;;;;;;;;;;32.20;38.36;98865.97;1793261;79;20091;-74
2021/07/31 10:16:55;;;;;;;;;;;;;;;32.53;38.81;98866.33;1792700;79;20084;-74
2021/07/31 10:19:23;;;;;;;;;;;;;;;32.79;36.57;98865.37;1797094;79;20148;-74
2021/07/31 10:21:58;;;;;;;;;;;;;;;32.51;37.47;98868.77;1799034;79;21151;-73
2021/07/31 10:24:21;;;;;;;;;;;;;;;32.41;36.82;98860.73;1794669;78;20088;-75
2021/07/31 10:27:17;;;;;;;;;;;;;;;31.89;39.29;98860.97;1767656;80;20166;-74
2021/07/31 10:29:46;;;;;;;;;;;;;;;31.56;40.31;98850.84;1761735;81;20128;-76
2021/07/31 10:32:35;;;;;;;;;;;;;;;31.81;39.48;98848.39;1820215;77;20132;-74
2021/07/31 10:35:04;;;;;;;;;;;;;;;31.96;38.89;98849.03;1820788;78;20543;-75
2021/07/31 10:37:34;;;;;;;;;;;;;;;31.70;39.62;98845.75;1822881;76;20137;-75
2021/07/31 10:40:13;;;;;;;;;;;;;;;32.04;38.82;98843.56;1815235;77;20152;-76
2021/07/31 10:42:52;;;;;;;;;;;;;;;32.56;38.80;98843.88;1806928;77;20607;-76
2021/07/31 10:45:31;;;;;;;;;;;;;;;32.46;38.58;98840.83;1816606;77;20229;-74
2021/07/31 10:47:59;;;;;;;;;;;;;;;32.53;37.07;98837.16;1823688;78;21102;-72
2021/07/31 10:50:29;;;;;;;;;;;;;;;32.14;39.33;98839.89;1823776;78;20121;-73
2021/07/31 10:53:06;;;;;;;;;;;;;;;31.52;39.16;98838.99;1822910;78;20449;-73
2021/07/31 10:55:44;;;;;;;;;;;;;;;31.57;39.90;98834.37;1829787;78;20093;-73
2021/07/31 10:58:16;;;;;;;;;;;;;;;31.39;40.62;98829.03;1829749;78;20205;-74
2021/07/31 11:00:47;;;;;;;;;;;;;;;31.12;41.41;98829.48;1830041;78;21069;-71
2021/07/31 11:03:21;;;;;;;;;;;;;;;30.81;41.11;98822.98;1829133;78;20419;-77
2021/07/31 11:05:54;;;;;;;;;;;;;;;30.67;41.93;98817.75;1830240;78;20105;-74
2021/07/31 11:08:22;;;;;;;;;;;;;;;31.16;41.89;98832.98;1829644;78;20881;-72
2021/07/31 11:10:50;;;;;;;;;;;;;;;31.57;42.06;98828.83;1828172;77;20249;-70
2021/07/31 11:13:20;;;;;;;;;;;;;;;31.21;40.28;98829.77;1822741;78;21083;-73
2021/07/31 11:16:13;;;;;;;;;;;;;;;30.81;41.57;98827.91;1823698;78;20109;-73
2021/07/31 11:18:42;;;;;;;;;;;;;;;30.96;40.78;98824.45;1823426;78;20097;-73
2021/07/31 11:21:26;;;;;;;;;;;;;;;30.88;41.41;98819.58;1858106;77;20111;-70
2021/07/31 11:24:02;;;;;;;;;;;;;;;31.08;40.31;98817.02;1837440;77;20413;-74
2021/07/31 11:26:48;;;;;;;;;;;;;;;31.82;40.10;98818.05;1848270;77;20474;-72
2021/07/31 11:29:19;;;;;;;;;;;;;;;32.15;39.33;98817.86;1852027;77;20103;-74
2021/07/31 11:32:11;;;;;;;;;;;;;;;31.84;38.89;98815.64;1852414;77;20138;-74
2021/07/31 11:34:41;;;;;;;;;;;;;;;32.03;39.45;98815.64;1829230;77;20416;-75
2021/07/31 11:37:09;;;;;;;;;;;;;;;32.08;40.04;98811.62;1821502;77;20417;-77
2021/07/31 11:39:37;;;;;;;;;;;;;;;32.09;39.13;98797.30;1821465;77;21861;-73
2021/07/31 11:42:06;;;;;;;;;;;;;;;32.14;40.05;98803.80;1821171;77;20070;-76
2021/07/31 11:44:33;;;;;;;;;;;;;;;32.29;39.17;98804.39;1821519;79;20728;-74
2021/07/31 11:47:01;;;;;;;;;;;;;;;32.41;39.17;98813.53;1821712;78;20125;-75
2021/07/31 11:49:29;;;;;;;;;;;;;;;31.92;40.14;98813.56;1799585;78;20094;-74
2021/07/31 11:52:01;;;;;;;;;;;;;;;31.68;38.78;98804.34;1823973;77;21049;-74
2021/07/31 11:54:30;;;;;;;;;;;;;;;31.73;38.98;98796.98;1822307;77;20077;-74
2021/07/31 11:56:58;;;;;;;;;;;;;;;31.95;39.55;98803.85;1820297;77;20078;-76
2021/07/31 11:59:30;;;;;;;;;;;;;;;32.27;38.98;98806.02;1823039;78;20136;-72
2021/07/31 12:01:56;;;;;;;;;;;;;;;32.01;38.63;98793.06;1823801;78;20101;-72
2021/07/31 12:04:47;;;;;;;;;;;;;;;31.36;39.17;98791.63;1823650;77;21083;-72
2021/07/31 12:07:19;;;;;;;;;;;;;;;30.98;40.02;98784.66;1823394;78;20432;-74
2021/07/31 12:10:08;;;;;;;;;;;;;;;30.97;40.93;98783.88;1823599;78;20170;-74
2021/07/31 12:12:36;;;;;;;;;;;;;;;31.50;40.58;98772.06;1823691;78;20093;-73
2021/07/31 12:15:14;;;;;;;;;;;;;;;31.79;39.68;98776.66;1817141;77;20085;-73
2021/07/31 12:17:56;;;;;;;;;;;;;;;31.80;39.28;98776.86;1814978;78;21098;-76
2021/07/31 12:20:37;;;;;;;;;;;;;;;32.03;38.38;98767.86;1794119;78;20235;-70
2021/07/31 12:23:06;;;;;;;;;;;;;;;32.12;37.49;98781.80;1796458;80;20464;-74
2021/07/31 12:25:34;;;;;;;;;;;;;;;32.29;36.59;98781.37;1795586;78;20549;-74
2021/07/31 12:28:13;;;;;;;;;;;;;;;32.58;37.58;98777.58;1789699;78;20160;-74
2021/07/31 12:30:40;;;;;;;;;;;;;;;32.34;37.16;98774.77;1798245;78;21134;-74
2021/07/31 12:33:10;;;;;;;;;;;;;;;32.31;36.84;98774.80;1778445;78;20458;-72
2021/07/31 12:35:44;;;;;;;;;;;;;;;32.30;38.39;98782.95;1805286;78;20105;-73
2021/07/31 12:38:13;;;;;;;;;;;;;;;32.51;36.85;98776.30;1812947;78;20175;-72
2021/07/31 12:40:40;;;;;;;;;;;;;;;32.17;36.13;98779.37;1832751;78;20311;-70
2021/07/31 12:43:08;;;;;;;;;;;;;;;31.63;37.42;98768.75;1805723;78;21094;-70
2021/07/31 12:45:35;;;;;;;;;;;;;;;31.07;39.36;98765.58;1809486;78;20112;-71
2021/07/31 12:48:02;;;;;;;;;;;;;;;30.90;39.58;98753.47;1802981;78;20100;-71
2021/07/31 12:50:30;;;;;;;;;;;;;;;31.19;40.13;98753.97;1786990;80;20475;-75
2021/07/31 12:52:57;;;;;;;;;;;;;;;31.17;39.41;98753.59;1784902;79;20137;-71
2021/07/31 12:55:24;;;;;;;;;;;;;;;31.26;39.38;98762.81;1758918;80;21910;-73
2021/07/31 12:57:51;;;;;;;;;;;;;;;31.61;40.45;98761.64;1792086;80;20187;-73
2021/07/31 13:00:18;;;;;;;;;;;;;;;31.82;37.53;98759.78;1820774;77;20097;-73
2021/07/31 13:02:47;;;;;;;;;;;;;;;32.05;37.80;98763.89;1822863;77;20167;-75
2021/07/31 13:05:15;;;;;;;;;;;;;;;32.19;38.23;98767.25;1818448;77;20094;-76
2021/07/31 13:07:42;;;;;;;;;;;;;;;31.65;37.12;98754.64;1819781;79;21057;-72
2021/07/31 13:10:09;;;;;;;;;;;;;;;31.67;37.63;98770.88;1819448;79;20075;-71
2021/07/31 13:12:35;;;;;;;;;;;;;;;31.78;37.97;98768.77;1833343;77;20145;-72
2021/07/31 13:15:06;;;;;;;;;;;;;;;32.07;37.65;98774.76;1826257;77;20093;-73
2021/07/31 13:17:34;;;;;;;;;;;;;;;32.20;37.44;98777.13;1826222;77;20146;-76
2021/07/31 13:20:02;;;;;;;;;;;;;;;32.20;36.61;98772.97;1830181;77;21094;-73
2021/07/31 13:22:28;;;;;;;;;;;;;;;32.41;37.58;98764.94;1821472;77;20417;-75
2021/07/31 13:24:57;;;;;;;;;;;;;;;32.47;37.35;98779.12;1821718;77;20137;-72
2021/07/31 13:27:27;;;;;;;;;;;;;;;32.29;36.28;98770.27;1819990;77;20466;-71
2021/07/31 13:29:54;;;;;;;;;;;;;;;32.24;36.90;98770.94;1828245;77;20168;-72